Time;durP1;ratioP1;P1;durP2;ratioP2;P2;SDS_P1;SDS_P2;PMS_P1;PMS_P2;Temp;Humidity;BMP_temperature;BMP_pressure;BME280_temperature;BME280_humidity;BME280_pressure;Samples;Min_cycle;Max_cycle;Signal;HPM_P1;HPM_P2
2021/08/19 00:01:15;;;;;;;1.30;1.30;;;17.90;99.90;;;;;;5051739;28;20601;-74
2021/08/19 00:03:42;;;;;;;1.40;1.30;;;17.90;99.90;;;;;;5047851;28;20208;-74
2021/08/19 00:06:09;;;;;;;1.30;1.20;;;17.90;99.90;;;;;;5049566;28;20204;-75
2021/08/19 00:08:36;;;;;;;1.00;1.00;;;17.90;99.90;;;;;;5046326;28;20216;-75
2021/08/19 00:11:04;;;;;;;1.67;1.40;;;17.90;99.90;;;;;;5048773;28;20632;-74
2021/08/19 00:13:31;;;;;;;1.20;1.20;;;17.90;99.90;;;;;;5049216;28;20215;-74
2021/08/19 00:15:59;;;;;;;1.13;1.10;;;17.90;99.90;;;;;;5047922;28;20237;-74
2021/08/19 00:18:26;;;;;;;1.20;1.20;;;17.90;99.90;;;;;;5048920;28;20211;-74
2021/08/19 00:20:52;;;;;;;1.13;1.13;;;17.90;99.90;;;;;;5048864;28;20616;-74
2021/08/19 00:23:20;;;;;;;1.00;1.00;;;17.90;99.90;;;;;;5047909;28;20311;-74
2021/08/19 00:25:47;;;;;;;0.95;0.95;;;17.90;99.90;;;;;;5048383;28;20539;-73
2021/08/19 00:28:15;;;;;;;0.93;0.93;;;17.90;99.90;;;;;;5047544;28;20564;-74
2021/08/19 00:30:42;;;;;;;1.10;1.10;;;17.90;99.90;;;;;;5048190;28;20211;-73
2021/08/19 00:33:09;;;;;;;1.20;1.20;;;17.90;99.90;;;;;;5049311;28;20235;-74
2021/08/19 00:35:35;;;;;;;1.20;1.10;;;17.90;99.90;;;;;;5047643;28;20221;-74
2021/08/19 00:38:03;;;;;;;1.05;0.82;;;17.90;99.90;;;;;;5047499;28;20720;-74
2021/08/19 00:40:30;;;;;;;1.00;1.00;;;17.90;99.90;;;;;;5048536;28;20245;-74
2021/08/19 00:42:58;;;;;;;1.10;1.10;;;18.00;99.90;;;;;;5048622;28;20198;-73
2021/08/19 00:45:28;;;;;;;1.00;1.00;;;17.90;99.90;;;;;;5048945;28;20215;-74
2021/08/19 00:47:55;;;;;;;1.07;1.07;;;18.00;99.90;;;;;;5048661;28;20199;-74
2021/08/19 00:50:24;;;;;;;1.00;1.00;;;18.00;99.90;;;;;;5049605;28;20205;-74
2021/08/19 00:52:51;;;;;;;1.00;1.00;;;18.00;99.90;;;;;;5046670;28;20207;-74
2021/08/19 00:55:18;;;;;;;0.93;0.93;;;18.00;99.90;;;;;;5048857;28;20735;-73
2021/08/19 00:57:46;;;;;;;1.10;1.10;;;18.00;99.90;;;;;;5041329;28;20768;-74
2021/08/19 01:00:14;;;;;;;1.10;1.10;;;18.00;99.90;;;;;;5048395;28;20209;-74
2021/08/19 01:02:46;;;;;;;0.90;0.90;;;18.00;99.90;;;;;;5048775;28;20647;-73
2021/08/19 01:05:14;;;;;;;3.23;1.00;;;18.00;99.90;;;;;;5046499;28;20555;-74
2021/08/19 01:07:41;;;;;;;0.83;0.83;;;18.00;99.90;;;;;;5047337;28;20732;-74
2021/08/19 01:10:09;;;;;;;0.65;0.65;;;18.00;99.90;;;;;;5043739;28;20211;-74
2021/08/19 01:12:36;;;;;;;0.75;0.75;;;18.00;99.90;;;;;;5045776;28;20210;-74
2021/08/19 01:15:04;;;;;;;0.70;0.70;;;18.00;99.90;;;;;;5041133;28;20656;-74
2021/08/19 01:17:31;;;;;;;0.80;0.80;;;18.00;99.90;;;;;;5052922;28;20664;-74
2021/08/19 01:20:00;;;;;;;0.70;0.70;;;18.00;99.90;;;;;;5048455;28;20211;-74
2021/08/19 01:22:27;;;;;;;0.70;0.70;;;18.00;99.90;;;;;;5048193;28;20737;-74
2021/08/19 01:24:54;;;;;;;0.70;0.70;;;18.00;99.90;;;;;;5046057;28;20656;-74
2021/08/19 01:27:23;;;;;;;0.60;0.60;;;18.10;99.90;;;;;;5047957;28;20192;-74
2021/08/19 01:29:52;;;;;;;0.80;0.80;;;18.00;99.90;;;;;;5048431;28;20201;-74
2021/08/19 01:32:19;;;;;;;0.63;0.63;;;18.10;99.90;;;;;;5045343;28;20205;-74
2021/08/19 01:34:46;;;;;;;0.70;0.70;;;18.00;99.90;;;;;;5045874;28;20684;-74
2021/08/19 01:37:14;;;;;;;0.82;0.82;;;18.00;99.90;;;;;;5046518;28;20960;-74
2021/08/19 01:39:41;;;;;;;0.90;0.90;;;18.00;99.90;;;;;;5044814;28;20193;-74
2021/08/19 01:42:08;;;;;;;0.98;0.98;;;18.00;99.90;;;;;;5055176;28;20213;-73
2021/08/19 01:44:36;;;;;;;0.80;0.80;;;18.00;99.90;;;;;;5047962;28;20201;-73
2021/08/19 01:47:04;;;;;;;0.68;0.68;;;18.10;99.90;;;;;;5036242;28;20587;-73
2021/08/19 01:49:33;;;;;;;0.80;0.80;;;18.00;99.90;;;;;;5046024;28;20208;-74
2021/08/19 01:52:01;;;;;;;0.73;0.73;;;18.00;99.90;;;;;;5048412;28;20224;-74
2021/08/19 01:54:28;;;;;;;1.00;1.00;;;18.10;99.90;;;;;;5042517;28;20258;-74
2021/08/19 01:56:56;;;;;;;1.08;1.08;;;18.10;99.90;;;;;;5049332;28;20200;-74
2021/08/19 01:59:23;;;;;;;0.88;0.88;;;18.10;99.90;;;;;;5060155;28;20217;-74
2021/08/19 02:01:52;;;;;;;0.88;0.88;;;18.10;99.90;;;;;;5048623;28;20203;-74
2021/08/19 02:04:19;;;;;;;0.80;0.80;;;18.10;99.90;;;;;;5048826;28;20207;-74
2021/08/19 02:06:46;;;;;;;0.85;0.85;;;18.10;99.90;;;;;;5049840;28;20241;-74
2021/08/19 02:09:12;;;;;;;0.95;0.90;;;18.10;99.90;;;;;;5049325;28;20213;-74
2021/08/19 02:11:39;;;;;;;1.17;1.17;;;18.10;99.90;;;;;;5051510;28;20206;-74
2021/08/19 02:14:07;;;;;;;1.02;1.02;;;18.10;99.90;;;;;;5051745;28;20205;-74
2021/08/19 02:16:34;;;;;;;1.42;1.42;;;18.10;99.90;;;;;;5050549;28;20223;-74
2021/08/19 02:19:03;;;;;;;1.10;1.10;;;18.10;99.90;;;;;;5050021;28;20663;-74
2021/08/19 02:21:30;;;;;;;1.25;1.20;;;18.10;99.90;;;;;;5052138;28;20205;-74
2021/08/19 02:23:57;;;;;;;1.98;1.60;;;18.10;99.90;;;;;;5049842;28;20285;-74
2021/08/19 02:26:24;;;;;;;1.35;1.35;;;18.10;99.90;;;;;;5049427;28;20201;-74
2021/08/19 02:28:51;;;;;;;1.85;1.38;;;18.10;99.90;;;;;;5051454;28;20200;-74
2021/08/19 02:31:17;;;;;;;1.10;1.10;;;18.10;99.90;;;;;;5050676;28;20251;-74
2021/08/19 02:33:44;;;;;;;1.58;1.48;;;18.10;99.90;;;;;;5051150;28;20215;-74
2021/08/19 02:36:13;;;;;;;1.30;1.30;;;18.10;99.90;;;;;;5049995;28;20681;-74
2021/08/19 02:38:40;;;;;;;1.58;1.48;;;18.10;99.90;;;;;;5049378;28;20223;-74
2021/08/19 02:41:06;;;;;;;1.40;1.30;;;18.10;99.90;;;;;;5049175;28;20695;-74
2021/08/19 02:43:38;;;;;;;1.50;1.40;;;18.10;99.90;;;;;;5050612;28;20307;-74
2021/08/19 02:46:05;;;;;;;1.75;1.65;;;18.10;99.90;;;;;;5050980;28;20193;-74
2021/08/19 02:48:32;;;;;;;1.40;1.30;;;18.10;99.90;;;;;;5050397;28;20202;-73
2021/08/19 02:50:58;;;;;;;1.40;1.23;;;18.10;99.90;;;;;;5037807;28;20214;-74
2021/08/19 02:53:27;;;;;;;1.25;1.25;;;18.10;99.90;;;;;;5050041;28;20229;-74
2021/08/19 02:55:54;;;;;;;1.38;1.38;;;18.10;99.90;;;;;;5052292;28;20328;-74
2021/08/19 02:58:21;;;;;;;1.70;1.60;;;18.20;99.90;;;;;;5047450;28;20215;-74
2021/08/19 03:00:48;;;;;;;1.30;1.30;;;18.20;99.90;;;;;;5038965;28;20233;-74
2021/08/19 03:03:14;;;;;;;1.70;1.60;;;18.20;99.90;;;;;;5051008;28;20232;-74
2021/08/19 03:05:41;;;;;;;1.20;1.20;;;18.20;99.90;;;;;;5050424;28;20691;-74
2021/08/19 03:08:08;;;;;;;1.20;1.20;;;18.20;99.90;;;;;;5049144;28;20205;-74
2021/08/19 03:10:37;;;;;;;1.40;1.13;;;18.20;99.90;;;;;;5049772;28;20201;-74
2021/08/19 03:13:03;;;;;;;1.05;1.05;;;18.20;99.90;;;;;;5047739;28;20209;-74
2021/08/19 03:15:30;;;;;;;1.25;1.23;;;18.30;99.90;;;;;;5048552;28;20268;-73
2021/08/19 03:17:57;;;;;;;1.50;1.40;;;18.30;99.90;;;;;;5049038;28;20518;-73
2021/08/19 03:20:25;;;;;;;1.42;1.35;;;18.30;99.90;;;;;;5050651;28;20589;-73
2021/08/19 03:22:52;;;;;;;1.80;1.70;;;18.30;99.90;;;;;;5048815;28;20631;-74
2021/08/19 03:25:19;;;;;;;1.83;1.73;;;18.30;99.90;;;;;;5049427;28;20681;-73
2021/08/19 03:27:47;;;;;;;1.88;1.70;;;18.30;99.90;;;;;;5043332;28;20216;-73
2021/08/19 03:30:15;;;;;;;2.95;2.10;;;18.30;99.90;;;;;;5046075;28;20693;-74
2021/08/19 03:32:42;;;;;;;1.75;1.60;;;18.30;99.90;;;;;;5050676;28;20201;-74
2021/08/19 03:35:10;;;;;;;1.50;1.40;;;18.30;99.90;;;;;;5050778;28;20594;-74
2021/08/19 03:37:37;;;;;;;1.30;1.30;;;18.30;99.90;;;;;;5048178;28;20227;-74
2021/08/19 03:40:05;;;;;;;1.70;1.60;;;18.30;99.90;;;;;;5047356;28;20211;-74
2021/08/19 03:42:32;;;;;;;1.27;1.27;;;18.30;99.90;;;;;;5049959;28;20607;-74
2021/08/19 03:45:01;;;;;;;1.42;1.33;;;18.30;99.90;;;;;;5049031;28;20236;-74
2021/08/19 03:47:27;;;;;;;4.67;2.07;;;18.40;99.90;;;;;;5053182;28;20249;-73
2021/08/19 03:49:54;;;;;;;1.90;1.80;;;18.30;99.90;;;;;;5048270;28;20363;-74
2021/08/19 03:52:21;;;;;;;1.70;1.60;;;18.40;99.90;;;;;;5050350;28;20198;-74
2021/08/19 03:54:49;;;;;;;1.50;1.40;;;18.40;99.90;;;;;;5048097;28;20216;-74
2021/08/19 03:57:16;;;;;;;1.50;1.40;;;18.40;99.90;;;;;;5052033;28;20214;-74
2021/08/19 03:59:42;;;;;;;1.73;1.63;;;18.40;99.90;;;;;;5041518;28;20245;-74
2021/08/19 04:02:11;;;;;;;1.50;1.40;;;18.40;99.90;;;;;;5046079;28;20213;-74
2021/08/19 04:04:37;;;;;;;1.48;1.38;;;18.40;99.90;;;;;;5048385;28;20243;-74
2021/08/19 04:07:04;;;;;;;1.85;1.75;;;18.50;99.90;;;;;;5037163;28;20228;-74
2021/08/19 04:09:31;;;;;;;1.98;1.88;;;18.50;99.90;;;;;;5037191;28;20198;-74
2021/08/19 04:11:58;;;;;;;2.00;1.90;;;18.40;99.90;;;;;;5049320;28;20214;-74
2021/08/19 04:14:25;;;;;;;1.40;1.30;;;18.40;99.90;;;;;;5049419;28;20198;-74
2021/08/19 04:16:52;;;;;;;2.35;1.40;;;18.40;99.90;;;;;;5048274;28;20231;-74
2021/08/19 04:19:20;;;;;;;1.77;1.67;;;18.40;99.90;;;;;;5041952;28;20244;-74
2021/08/19 04:21:47;;;;;;;1.25;1.25;;;18.40;99.90;;;;;;5047186;28;20194;-74
2021/08/19 04:24:14;;;;;;;1.40;1.40;;;18.50;99.90;;;;;;5047368;28;20670;-75
2021/08/19 04:26:41;;;;;;;1.58;1.48;;;18.50;99.90;;;;;;5048651;28;20202;-74
2021/08/19 04:29:08;;;;;;;1.20;1.20;;;18.50;99.90;;;;;;5048375;28;20203;-75
2021/08/19 04:31:34;;;;;;;1.15;1.15;;;18.50;99.90;;;;;;5049476;28;20688;-75
2021/08/19 04:34:03;;;;;;;2.13;1.48;;;18.60;99.90;;;;;;5050397;28;20297;-75
2021/08/19 04:36:31;;;;;;;1.50;1.40;;;18.60;99.90;;;;;;5047584;28;20600;-75
2021/08/19 04:38:58;;;;;;;1.52;1.50;;;18.60;99.90;;;;;;5052108;28;20550;-73
2021/08/19 04:41:25;;;;;;;1.40;1.40;;;18.60;99.90;;;;;;5048061;28;20262;-74
2021/08/19 04:43:52;;;;;;;1.63;1.52;;;18.60;99.90;;;;;;5048389;28;20263;-73
2021/08/19 04:46:19;;;;;;;1.20;1.20;;;18.70;99.90;;;;;;5049379;28;20200;-73
2021/08/19 04:48:46;;;;;;;1.45;1.35;;;18.70;99.90;;;;;;5048548;28;20534;-73
2021/08/19 04:51:13;;;;;;;1.45;1.40;;;18.80;99.90;;;;;;5049081;28;20202;-74
2021/08/19 04:53:41;;;;;;;1.45;1.40;;;18.80;99.90;;;;;;5045754;28;20567;-73
2021/08/19 04:56:08;;;;;;;1.20;1.20;;;18.80;99.90;;;;;;5050776;28;20256;-73
2021/08/19 04:58:35;;;;;;;1.30;1.30;;;18.80;99.90;;;;;;5041021;28;20259;-73
2021/08/19 05:01:01;;;;;;;1.90;1.55;;;18.90;99.90;;;;;;5047369;28;20201;-76
2021/08/19 05:03:28;;;;;;;1.83;1.73;;;18.90;99.90;;;;;;5047653;28;20219;-73
2021/08/19 05:05:55;;;;;;;1.92;1.83;;;18.90;99.90;;;;;;5049017;28;20251;-73
2021/08/19 05:08:22;;;;;;;1.53;1.50;;;18.90;99.90;;;;;;5037981;28;20206;-75
2021/08/19 05:10:50;;;;;;;1.50;1.40;;;18.90;99.90;;;;;;5046191;28;20206;-74
2021/08/19 05:13:17;;;;;;;1.23;1.23;;;18.90;99.90;;;;;;5046870;28;20600;-75
2021/08/19 05:15:44;;;;;;;1.20;1.20;;;18.90;99.90;;;;;;5048622;28;20222;-74
2021/08/19 05:18:11;;;;;;;1.77;1.67;;;18.90;99.90;;;;;;5048181;28;20636;-75
2021/08/19 05:20:38;;;;;;;1.40;1.40;;;18.90;99.90;;;;;;5048401;28;20258;-75
2021/08/19 05:23:06;;;;;;;2.00;1.80;;;18.90;99.90;;;;;;5046853;28;20230;-75
2021/08/19 05:25:33;;;;;;;1.30;1.30;;;18.90;99.90;;;;;;5046863;28;20229;-75
2021/08/19 05:28:01;;;;;;;1.65;1.55;;;18.90;99.90;;;;;;5048095;28;20668;-75
2021/08/19 05:30:28;;;;;;;1.48;1.30;;;19.00;99.90;;;;;;5046645;28;20605;-75
2021/08/19 05:32:55;;;;;;;1.50;1.40;;;19.00;99.90;;;;;;5046799;28;20197;-75
2021/08/19 05:35:22;;;;;;;1.65;1.55;;;19.00;99.90;;;;;;5042856;28;20742;-74
2021/08/19 05:37:49;;;;;;;1.83;1.73;;;19.00;99.90;;;;;;5046255;28;20587;-75
2021/08/19 05:40:16;;;;;;;1.85;1.70;;;19.10;99.90;;;;;;5039069;28;20705;-75
2021/08/19 05:42:43;;;;;;;1.55;1.45;;;19.10;99.90;;;;;;5047706;28;20205;-75
2021/08/19 05:45:12;;;;;;;1.60;1.50;;;19.10;99.90;;;;;;5048914;28;20739;-74
2021/08/19 05:47:38;;;;;;;2.00;1.90;;;19.20;99.90;;;;;;5047863;28;20216;-75
2021/08/19 05:50:10;;;;;;;2.08;1.90;;;19.20;99.90;;;;;;5047826;28;20686;-75
2021/08/19 05:52:37;;;;;;;1.80;1.70;;;19.20;99.90;;;;;;5045572;28;20212;-75
2021/08/19 05:55:05;;;;;;;2.00;1.50;;;19.20;99.90;;;;;;5047075;28;20307;-75
2021/08/19 05:57:32;;;;;;;1.70;1.60;;;19.20;99.90;;;;;;5047392;28;20228;-75
2021/08/19 05:59:59;;;;;;;1.45;1.45;;;19.20;99.90;;;;;;5044861;28;20197;-75
2021/08/19 06:02:27;;;;;;;1.33;1.33;;;19.20;99.90;;;;;;5047379;28;20622;-74
2021/08/19 06:04:54;;;;;;;1.30;1.30;;;19.20;99.90;;;;;;5047032;28;20198;-75
2021/08/19 06:07:21;;;;;;;1.98;1.80;;;19.20;99.90;;;;;;5047796;28;20194;-75
2021/08/19 06:09:48;;;;;;;1.75;1.65;;;19.20;99.90;;;;;;5045856;28;20190;-75
2021/08/19 06:12:15;;;;;;;2.53;2.00;;;19.20;99.90;;;;;;5047297;28;20258;-75
2021/08/19 06:14:42;;;;;;;1.98;1.88;;;19.20;99.90;;;;;;5048083;28;20598;-74
2021/08/19 06:17:09;;;;;;;1.48;1.38;;;19.10;99.90;;;;;;5047735;28;20220;-74
2021/08/19 06:19:37;;;;;;;1.35;1.25;;;19.10;99.90;;;;;;5047333;28;20202;-74
2021/08/19 06:22:04;;;;;;;1.33;1.33;;;19.10;99.90;;;;;;5047266;28;20261;-74
2021/08/19 06:24:31;;;;;;;1.27;1.20;;;19.10;99.90;;;;;;5060786;28;20591;-74
2021/08/19 06:26:58;;;;;;;1.50;1.40;;;19.20;99.90;;;;;;5047967;28;20198;-75
2021/08/19 06:29:25;;;;;;;1.40;1.30;;;19.20;99.90;;;;;;5046498;28;20201;-74
2021/08/19 06:31:52;;;;;;;1.00;1.00;;;19.20;99.90;;;;;;5047572;28;20565;-74
2021/08/19 06:34:19;;;;;;;1.10;1.10;;;19.20;99.90;;;;;;5047327;28;20248;-74
2021/08/19 06:36:47;;;;;;;1.05;0.95;;;19.20;99.90;;;;;;5047455;28;20222;-74
2021/08/19 06:39:14;;;;;;;1.20;1.20;;;19.20;99.90;;;;;;5043559;28;20194;-74
2021/08/19 06:41:41;;;;;;;1.15;1.05;;;19.30;99.90;;;;;;5057628;28;20210;-75
2021/08/19 06:44:08;;;;;;;1.17;1.17;;;19.50;99.90;;;;;;5038958;28;20206;-74
2021/08/19 06:46:35;;;;;;;1.48;1.38;;;19.90;99.90;;;;;;5041732;28;20547;-73
2021/08/19 06:49:02;;;;;;;1.38;1.38;;;20.70;99.90;;;;;;5033683;28;20198;-74
2021/08/19 06:51:30;;;;;;;1.52;1.50;;;21.00;99.90;;;;;;5039825;28;20198;-74
2021/08/19 06:53:59;;;;;;;1.23;1.20;;;21.20;99.90;;;;;;5044934;28;20256;-74
2021/08/19 06:56:27;;;;;;;1.40;1.30;;;21.30;99.90;;;;;;5045519;28;20433;-78
2021/08/19 06:58:54;;;;;;;1.42;1.20;;;21.40;99.90;;;;;;5048413;28;20735;-74
2021/08/19 07:01:21;;;;;;;1.35;1.25;;;21.30;99.90;;;;;;5046212;28;20190;-74
2021/08/19 07:03:47;;;;;;;4.05;1.65;;;21.30;99.90;;;;;;5047165;28;20217;-73
2021/08/19 07:06:16;;;;;;;1.70;1.60;;;21.50;99.90;;;;;;5056765;28;20551;-74
2021/08/19 07:08:43;;;;;;;1.98;1.52;;;22.00;99.90;;;;;;5043110;28;20197;-73
2021/08/19 07:11:13;;;;;;;1.50;1.40;;;22.40;99.90;;;;;;5041891;28;20209;-74
2021/08/19 07:13:40;;;;;;;1.45;1.35;;;22.60;99.90;;;;;;5058873;28;20650;-74
2021/08/19 07:16:07;;;;;;;1.90;1.80;;;22.70;99.90;;;;;;5048001;28;20267;-74
2021/08/19 07:18:34;;;;;;;1.95;1.85;;;22.70;99.90;;;;;;5048149;28;20263;-74
2021/08/19 07:21:01;;;;;;;2.20;2.00;;;22.60;99.90;;;;;;5045811;28;20205;-74
2021/08/19 07:23:28;;;;;;;2.53;2.10;;;22.50;99.90;;;;;;5045640;28;20234;-74
2021/08/19 07:25:55;;;;;;;1.83;1.73;;;22.40;99.90;;;;;;5045136;28;20198;-74
2021/08/19 07:28:25;;;;;;;2.20;2.03;;;22.30;99.90;;;;;;5047561;28;20194;-74
2021/08/19 07:30:52;;;;;;;3.55;2.00;;;22.10;99.90;;;;;;5047232;28;20247;-75
2021/08/19 07:33:19;;;;;;;1.70;1.60;;;22.00;99.90;;;;;;5045036;28;20642;-72
2021/08/19 07:35:49;;;;;;;2.40;2.20;;;21.90;99.90;;;;;;5048238;28;20259;-73
2021/08/19 07:38:18;;;;;;;2.17;2.08;;;21.90;99.90;;;;;;5043462;28;20222;-72
2021/08/19 07:40:46;;;;;;;1.83;1.73;;;21.80;99.90;;;;;;5061567;28;20727;-74
2021/08/19 07:43:13;;;;;;;2.58;2.30;;;21.80;99.90;;;;;;5045460;28;20225;-73
2021/08/19 07:45:42;;;;;;;2.05;1.95;;;21.80;99.90;;;;;;5045376;28;20717;-71
2021/08/19 07:48:09;;;;;;;1.85;1.75;;;21.80;99.90;;;;;;5047698;28;20592;-75
2021/08/19 07:50:37;;;;;;;1.70;1.60;;;21.80;99.90;;;;;;5043136;28;20311;-75
2021/08/19 07:53:04;;;;;;;1.95;1.85;;;21.80;99.90;;;;;;5045885;28;20202;-75
2021/08/19 07:55:31;;;;;;;1.75;1.65;;;21.50;99.90;;;;;;5046168;28;20330;-74
2021/08/19 07:57:58;;;;;;;2.45;2.03;;;22.60;99.90;;;;;;5046469;28;20271;-76
2021/08/19 08:00:26;;;;;;;1.77;1.67;;;25.00;99.90;;;;;;5047066;28;20197;-73
2021/08/19 08:02:55;;;;;;;1.40;1.40;;;26.00;99.60;;;;;;5045754;28;20194;-75
2021/08/19 08:05:24;;;;;;;1.80;1.70;;;25.80;98.10;;;;;;5046977;28;20293;-74
2021/08/19 08:07:52;;;;;;;2.10;1.77;;;25.70;98.00;;;;;;5046401;28;20194;-74
2021/08/19 08:10:19;;;;;;;1.77;1.67;;;25.70;97.70;;;;;;5043511;28;20534;-78
2021/08/19 08:12:47;;;;;;;6.07;1.50;;;25.50;97.10;;;;;;5046414;28;20213;-77
2021/08/19 08:15:14;;;;;;;1.25;1.25;;;25.10;97.30;;;;;;5045951;28;20206;-76
2021/08/19 08:17:41;;;;;;;1.10;1.10;;;25.30;97.90;;;;;;5045604;28;20213;-71
2021/08/19 08:20:11;;;;;;;1.73;1.63;;;25.80;96.80;;;;;;5046192;28;20198;-71
2021/08/19 08:22:40;;;;;;;1.45;1.40;;;27.40;95.70;;;;;;5043314;28;20337;-71
2021/08/19 08:25:08;;;;;;;1.70;1.60;;;29.90;91.80;;;;;;5045401;28;20214;-71
2021/08/19 08:27:35;;;;;;;1.70;1.60;;;32.30;82.60;;;;;;5046468;28;20308;-72
2021/08/19 08:30:03;;;;;;;2.08;1.40;;;34.30;70.40;;;;;;5046623;28;20202;-69
2021/08/19 08:32:30;;;;;;;2.05;1.48;;;36.00;62.00;;;;;;5045342;28;20208;-70
2021/08/19 08:34:57;;;;;;;1.77;1.67;;;37.50;56.80;;;;;;5044584;28;20198;-70
2021/08/19 08:37:26;;;;;;;2.05;1.95;;;39.10;52.20;;;;;;5059880;28;20713;-71
2021/08/19 08:39:53;;;;;;;1.60;1.50;;;39.50;49.10;;;;;;5044210;28;20275;-70
2021/08/19 08:42:21;;;;;;;1.60;1.50;;;38.70;48.50;;;;;;5045788;28;20237;-70
2021/08/19 08:44:48;;;;;;;1.70;1.60;;;37.50;48.80;;;;;;5043831;28;20205;-70
2021/08/19 08:47:18;;;;;;;1.35;1.35;;;36.10;49.90;;;;;;5045648;28;20204;-70
2021/08/19 08:49:46;;;;;;;1.50;1.40;;;34.80;50.90;;;;;;5046113;28;20196;-70
2021/08/19 08:52:13;;;;;;;1.10;1.10;;;33.50;52.20;;;;;;5045010;28;20198;-70
2021/08/19 08:54:41;;;;;;;2.13;1.50;;;32.80;53.40;;;;;;5044635;28;20212;-70
2021/08/19 08:57:08;;;;;;;1.52;1.40;;;33.50;53.40;;;;;;5045292;28;20558;-70
2021/08/19 08:59:35;;;;;;;1.80;1.70;;;35.00;51.10;;;;;;5045248;28;20363;-70
2021/08/19 09:02:02;;;;;;;1.30;1.30;;;35.50;50.00;;;;;;5045650;28;20239;-70
2021/08/19 09:04:29;;;;;;;1.40;1.40;;;35.50;49.60;;;;;;5045109;28;20273;-70
2021/08/19 09:07:03;;;;;;;1.73;1.63;;;35.50;48.00;;;;;;5044993;28;20243;-71
2021/08/19 09:09:30;;;;;;;1.58;1.40;;;35.00;48.00;;;;;;5042926;28;20193;-70
2021/08/19 09:12:01;;;;;;;1.85;1.60;;;34.40;48.10;;;;;;5044359;28;20263;-70
2021/08/19 09:14:31;;;;;;;1.20;1.20;;;33.80;48.10;;;;;;5044758;28;20603;-71
2021/08/19 09:16:59;;;;;;;1.52;1.38;;;33.10;48.60;;;;;;5044008;28;22091;-70
2021/08/19 09:19:29;;;;;;;1.42;1.42;;;32.70;48.80;;;;;;5045694;28;20255;-70
2021/08/19 09:21:58;;;;;;;1.20;1.20;;;32.30;49.10;;;;;;5046027;28;20206;-71
2021/08/19 09:24:26;;;;;;;1.45;1.45;;;31.70;49.50;;;;;;5041099;28;20278;-70
2021/08/19 09:26:55;;;;;;;1.50;1.40;;;31.00;49.70;;;;;;5046316;28;20589;-70
2021/08/19 09:29:25;;;;;;;1.42;1.40;;;30.20;50.60;;;;;;5044908;28;20205;-70
2021/08/19 09:31:54;;;;;;;1.33;1.23;;;29.50;52.20;;;;;;5045144;28;20213;-70
2021/08/19 09:34:22;;;;;;;1.60;1.50;;;28.70;53.60;;;;;;5044884;28;20190;-70
2021/08/19 09:36:59;;;;;;;1.23;1.20;;;28.10;55.00;;;;;;5045660;28;20688;-71
2021/08/19 09:39:35;;;;;;;1.25;1.25;;;27.50;56.20;;;;;;5043204;28;20193;-71
2021/08/19 09:42:02;;;;;;;0.85;0.85;;;27.00;57.40;;;;;;5044562;28;20280;-71
2021/08/19 09:44:35;;;;;;;0.90;0.90;;;26.60;58.30;;;;;;5042821;28;20311;-71
2021/08/19 09:47:03;;;;;;;1.20;1.20;;;26.30;59.20;;;;;;5055612;28;20700;-71
2021/08/19 09:49:33;;;;;;;0.90;0.90;;;25.90;60.00;;;;;;5043687;28;20272;-71
2021/08/19 09:52:06;;;;;;;1.00;1.00;;;25.60;60.90;;;;;;5046307;28;20228;-68
2021/08/19 09:54:34;;;;;;;1.00;1.00;;;25.40;62.20;;;;;;5042159;28;20731;-71
2021/08/19 09:57:02;;;;;;;0.80;0.80;;;25.40;62.90;;;;;;5045401;28;20629;-72
2021/08/19 09:59:34;;;;;;;0.85;0.85;;;25.60;63.00;;;;;;5043911;28;20197;-71
2021/08/19 10:02:03;;;;;;;1.10;1.00;;;26.40;62.70;;;;;;5044714;28;20846;-71
2021/08/19 10:04:30;;;;;;;2.03;1.10;;;28.00;60.00;;;;;;5045760;28;20194;-74
2021/08/19 10:06:58;;;;;;;1.10;1.10;;;28.70;58.50;;;;;;5044837;28;20907;-71
2021/08/19 10:09:25;;;;;;;1.60;1.50;;;28.60;58.30;;;;;;5040916;28;20448;-71
2021/08/19 10:11:54;;;;;;;1.70;1.60;;;28.40;58.50;;;;;;5046416;28;20553;-72
2021/08/19 10:14:23;;;;;;;1.42;1.33;;;27.90;58.80;;;;;;5042332;28;20205;-71
2021/08/19 10:16:50;;;;;;;1.30;1.10;;;27.40;59.40;;;;;;5048718;28;20209;-72
2021/08/19 10:19:28;;;;;;;1.02;1.02;;;27.00;59.90;;;;;;5044712;28;20223;-71
2021/08/19 10:22:01;;;;;;;1.30;1.20;;;26.60;60.40;;;;;;5045078;28;20542;-70
2021/08/19 10:24:33;;;;;;;1.00;1.00;;;26.40;61.20;;;;;;5043982;28;20225;-69
2021/08/19 10:27:14;;;;;;;1.05;1.05;;;26.30;61.60;;;;;;5050729;28;20238;-70
2021/08/19 10:29:46;;;;;;;1.13;1.13;;;27.00;61.60;;;;;;5044132;28;20200;-71
2021/08/19 10:32:32;;;;;;;1.10;1.10;;;28.10;59.90;;;;;;5048806;28;20202;-70
2021/08/19 10:35:06;;;;;;;1.23;1.10;;;30.40;57.70;;;;;;5045079;28;20199;-70
2021/08/19 10:37:59;;;;;;;1.30;1.20;;;32.90;54.40;;;;;;5046422;28;20270;-70
2021/08/19 10:40:41;;;;;;;1.27;1.13;;;33.50;51.60;;;;;;5048633;28;20275;-70
2021/08/19 10:43:37;;;;;;;1.38;1.38;;;32.70;51.50;;;;;;5047416;28;20202;-70
2021/08/19 10:46:08;;;;;;;1.40;1.40;;;31.70;52.20;;;;;;5047332;28;20259;-70
2021/08/19 10:48:47;;;;;;;1.30;1.20;;;31.90;52.50;;;;;;5048932;28;20202;-71
2021/08/19 10:51:17;;;;;;;2.00;1.40;;;33.70;50.70;;;;;;5047716;28;20450;-70
2021/08/19 10:53:44;;;;;;;1.27;1.27;;;34.90;48.30;;;;;;5062183;28;20205;-71
2021/08/19 10:56:11;;;;;;;1.40;1.40;;;35.30;47.40;;;;;;5047226;28;20631;-71
2021/08/19 10:58:41;;;;;;;1.05;1.05;;;34.90;47.30;;;;;;5046666;28;20225;-71
2021/08/19 11:01:27;;;;;;;1.45;1.35;;;34.00;48.00;;;;;;5048411;28;20197;-70
2021/08/19 11:03:54;;;;;;;1.48;1.40;;;33.00;48.80;;;;;;5047785;28;20914;-70
2021/08/19 11:06:26;;;;;;;1.25;1.15;;;32.50;49.40;;;;;;5048024;28;20202;-71
2021/08/19 11:08:55;;;;;;;1.50;1.40;;;32.30;49.80;;;;;;5047009;28;20665;-70
2021/08/19 11:11:34;;;;;;;1.42;1.33;;;32.10;49.70;;;;;;5046779;28;20244;-70
2021/08/19 11:14:08;;;;;;;1.50;1.40;;;31.70;50.10;;;;;;5047794;28;20202;-70
2021/08/19 11:16:36;;;;;;;1.40;1.40;;;31.60;50.20;;;;;;5045267;28;20538;-70
2021/08/19 11:19:21;;;;;;;1.10;1.10;;;32.30;49.90;;;;;;5045469;28;20210;-70
2021/08/19 11:21:55;;;;;;;1.20;1.20;;;34.10;48.20;;;;;;5048794;28;20202;-71
2021/08/19 11:24:22;;;;;;;1.35;1.27;;;35.70;45.90;;;;;;5043226;28;20292;-70
2021/08/19 11:27:06;;;;;;;2.47;1.40;;;37.20;44.60;;;;;;5048820;28;20292;-69
2021/08/19 11:29:36;;;;;;;2.33;1.30;;;38.20;42.90;;;;;;5047472;28;20198;-70
2021/08/19 11:32:09;;;;;;;1.70;1.60;;;38.80;41.40;;;;;;5058019;28;20491;-71
2021/08/19 11:34:37;;;;;;;1.75;1.65;;;39.00;39.70;;;;;;5041217;28;20439;-70
2021/08/19 11:37:06;;;;;;;1.63;1.52;;;38.70;39.20;;;;;;5046813;28;20209;-70
2021/08/19 11:39:33;;;;;;;2.22;2.03;;;38.60;39.20;;;;;;5054624;28;20311;-70
2021/08/19 11:42:02;;;;;;;2.10;2.00;;;38.00;38.80;;;;;;5048035;28;20255;-70
2021/08/19 11:44:29;;;;;;;1.65;1.55;;;37.50;39.40;;;;;;5043482;28;20229;-71
2021/08/19 11:47:00;;;;;;;1.85;1.80;;;37.10;39.70;;;;;;5047187;28;20728;-70
2021/08/19 11:49:27;;;;;;;1.60;1.60;;;36.20;39.60;;;;;;5046380;28;20197;-71
2021/08/19 11:52:07;;;;;;;2.15;1.80;;;35.20;40.20;;;;;;5047766;28;20194;-71
2021/08/19 11:54:42;;;;;;;1.83;1.70;;;34.20;40.80;;;;;;5042164;28;20439;-71
2021/08/19 11:57:09;;;;;;;1.98;1.88;;;33.30;41.50;;;;;;5046996;28;20208;-70
2021/08/19 11:59:35;;;;;;;1.40;1.30;;;31.90;43.80;;;;;;5046560;28;20529;-70
2021/08/19 12:02:03;;;;;;;1.30;1.30;;;30.40;46.20;;;;;;5046502;28;20212;-70
2021/08/19 12:04:30;;;;;;;1.30;1.20;;;29.40;47.70;;;;;;5044366;28;20535;-71
2021/08/19 12:06:57;;;;;;;1.00;1.00;;;28.80;49.30;;;;;;5047948;28;20711;-71
2021/08/19 12:09:28;;;;;;;1.23;1.23;;;28.10;50.90;;;;;;5043800;28;20673;-71
2021/08/19 12:11:56;;;;;;;0.85;0.85;;;27.80;51.60;;;;;;5046890;28;20197;-71
2021/08/19 12:14:25;;;;;;;0.80;0.80;;;27.90;51.90;;;;;;5045004;28;20194;-71
2021/08/19 12:16:54;;;;;;;0.82;0.82;;;27.80;52.20;;;;;;5047019;28;20229;-71
2021/08/19 12:19:23;;;;;;;1.08;0.98;;;27.80;52.50;;;;;;5046203;28;20229;-71
2021/08/19 12:21:58;;;;;;;0.75;0.75;;;27.70;52.70;;;;;;5046646;28;20269;-71
2021/08/19 12:24:30;;;;;;;1.10;1.10;;;27.70;52.90;;;;;;5059062;28;20193;-71
2021/08/19 12:27:03;;;;;;;0.90;0.90;;;27.70;53.10;;;;;;5045216;28;20190;-71
2021/08/19 12:29:31;;;;;;;1.00;1.00;;;27.70;53.60;;;;;;5045817;28;20190;-70
2021/08/19 12:32:00;;;;;;;0.93;0.90;;;27.40;53.90;;;;;;5046512;28;20202;-71
2021/08/19 12:34:28;;;;;;;1.20;1.20;;;27.20;54.30;;;;;;5044884;28;20377;-70
2021/08/19 12:37:05;;;;;;;1.08;1.08;;;27.30;54.60;;;;;;5039591;28;20535;-68
2021/08/19 12:39:35;;;;;;;1.25;1.15;;;27.40;54.90;;;;;;5036915;28;20657;-70
2021/08/19 12:42:07;;;;;;;0.90;0.90;;;27.50;54.90;;;;;;5046084;28;20264;-70
2021/08/19 12:44:35;;;;;;;1.20;1.10;;;27.60;54.80;;;;;;5044563;28;20701;-71
2021/08/19 12:47:02;;;;;;;0.90;0.90;;;27.60;54.90;;;;;;5046044;28;20224;-71
2021/08/19 12:49:31;;;;;;;0.90;0.90;;;27.60;54.70;;;;;;5041915;28;20189;-70
2021/08/19 12:52:28;;;;;;;0.80;0.80;;;27.60;54.60;;;;;;5046242;28;20214;-71
2021/08/19 12:55:08;;;;;;;1.35;1.00;;;27.60;54.50;;;;;;5001245;28;21077;-71